createdAt,value
2019-02-28T00:00:00.112Z,0.00
2019-02-28T00:01:00.042Z,0.00
2019-02-28T00:02:00.041Z,0.00
2019-02-28T00:03:00.037Z,0.00
2019-02-28T00:04:00.009Z,0.00
2019-02-28T00:04:59.996Z,0.00
2019-02-28T00:05:59.986Z,0.00
2019-02-28T00:06:59.969Z,0.00
2019-02-28T00:07:59.958Z,0.00
2019-02-28T00:08:59.983Z,0.00
2019-02-28T00:09:59.944Z,0.00
2019-02-28T00:11:02.069Z,0.00
2019-02-28T00:12:00.946Z,0.00
2019-02-28T00:12:59.910Z,0.00
2019-02-28T00:13:59.917Z,0.00
2019-02-28T00:14:59.913Z,0.00
2019-02-28T00:16:00.204Z,0.00
2019-02-28T00:16:59.881Z,0.00
2019-02-28T00:17:59.878Z,0.00
2019-02-28T00:18:59.869Z,0.00
2019-02-28T00:19:59.840Z,0.00
2019-02-28T00:20:59.839Z,0.00
2019-02-28T00:21:59.812Z,0.00
2019-02-28T00:22:59.854Z,0.00
2019-02-28T00:23:59.795Z,0.00
2019-02-28T00:25:01.161Z,0.00
2019-02-28T00:25:59.814Z,0.00
2019-02-28T00:26:59.952Z,0.00
2019-02-28T00:27:59.745Z,0.00
2019-02-28T00:29:00.400Z,0.00
2019-02-28T00:29:59.726Z,0.00
2019-02-28T00:30:59.717Z,0.00
2019-02-28T00:31:59.732Z,0.00
2019-02-28T00:32:59.965Z,0.00
2019-02-28T00:34:04.282Z,0.00
2019-02-28T00:35:00.669Z,0.00
2019-02-28T00:35:59.693Z,0.00
2019-02-28T00:36:59.710Z,0.00
2019-02-28T00:37:59.641Z,0.00
2019-02-28T00:39:00.053Z,0.00
2019-02-28T00:39:59.615Z,0.00
2019-02-28T00:40:59.614Z,0.00
2019-02-28T00:41:59.598Z,0.00
2019-02-28T00:42:59.619Z,0.00
2019-02-28T00:43:59.584Z,0.00
2019-02-28T00:45:02.341Z,0.00
2019-02-28T00:45:59.554Z,0.00
2019-02-28T00:46:59.542Z,0.00
2019-02-28T00:47:59.562Z,0.00
2019-02-28T00:48:59.551Z,0.00
2019-02-28T00:49:59.514Z,0.00
2019-02-28T00:50:59.505Z,0.00
2019-02-28T00:52:01.585Z,0.00
2019-02-28T00:52:59.479Z,0.00
2019-02-28T00:53:59.513Z,0.00
2019-02-28T00:54:59.463Z,0.00
2019-02-28T00:55:59.457Z,0.00
2019-02-28T00:56:59.458Z,0.00
2019-02-28T00:57:59.425Z,0.00
2019-02-28T00:59:00.491Z,0.00
2019-02-28T01:00:05.137Z,0.00
2019-02-28T01:01:00.393Z,0.00
2019-02-28T01:01:59.387Z,0.00
2019-02-28T01:02:59.399Z,0.00
2019-02-28T01:03:59.378Z,0.00
2019-02-28T01:05:01.393Z,0.00
2019-02-28T01:06:00.339Z,0.00
2019-02-28T01:06:59.328Z,0.00
2019-02-28T01:07:59.362Z,0.00
2019-02-28T01:08:59.317Z,0.00
2019-02-28T01:10:01.447Z,0.00
2019-02-28T01:11:00.284Z,0.00
2019-02-28T01:11:59.312Z,0.00
2019-02-28T01:12:59.316Z,0.00
2019-02-28T01:14:01.599Z,0.00
2019-02-28T01:14:59.252Z,0.00
2019-02-28T01:15:59.240Z,0.00
2019-02-28T01:16:59.228Z,0.00
2019-02-28T01:18:00.395Z,0.00
2019-02-28T01:18:59.200Z,0.00
2019-02-28T01:19:59.189Z,0.00
2019-02-28T01:20:59.180Z,0.00
2019-02-28T01:21:59.173Z,0.00
2019-02-28T01:22:59.354Z,0.00
2019-02-28T01:24:00.667Z,0.00
2019-02-28T01:24:59.142Z,0.00
2019-02-28T01:25:59.130Z,0.00
2019-02-28T01:26:59.123Z,0.00
2019-02-28T01:27:59.129Z,0.00
2019-02-28T01:29:02.061Z,0.00
2019-02-28T01:29:59.103Z,0.00
2019-02-28T01:30:59.072Z,0.00
2019-02-28T01:31:59.067Z,0.00
2019-02-28T01:32:59.077Z,0.00
2019-02-28T01:33:59.376Z,0.00
2019-02-28T01:34:59.072Z,0.00
2019-02-28T01:35:59.026Z,0.00
2019-02-28T01:36:59.014Z,0.00
2019-02-28T01:37:59.021Z,0.00
2019-02-28T01:38:58.986Z,0.00
2019-02-28T01:40:01.031Z,0.00
2019-02-28T01:40:59.983Z,0.00
2019-02-28T01:41:58.969Z,0.00
2019-02-28T01:42:59.008Z,0.00
2019-02-28T01:44:01.656Z,0.00
2019-02-28T01:44:58.942Z,0.00
2019-02-28T01:45:58.917Z,0.00
2019-02-28T01:46:58.907Z,0.00
2019-02-28T01:47:58.897Z,0.00
2019-02-28T01:48:58.883Z,0.00
2019-02-28T01:49:58.889Z,0.00
2019-02-28T01:51:00.847Z,0.00
2019-02-28T01:51:58.847Z,0.00
2019-02-28T01:52:58.839Z,0.00
2019-02-28T01:53:58.848Z,0.00
2019-02-28T01:54:59.178Z,0.00
2019-02-28T01:56:02.251Z,0.00
2019-02-28T01:56:58.795Z,0.00
2019-02-28T01:57:58.788Z,0.00
2019-02-28T01:58:58.795Z,0.00
2019-02-28T01:59:58.768Z,0.00
2019-02-28T02:00:58.783Z,0.00
2019-02-28T02:01:58.747Z,0.00
2019-02-28T02:02:58.729Z,0.00
2019-02-28T02:03:58.718Z,0.00
2019-02-28T02:04:58.710Z,0.00
2019-02-28T02:05:58.720Z,0.00
2019-02-28T02:06:59.814Z,0.00
2019-02-28T02:07:58.682Z,0.00
2019-02-28T02:08:58.689Z,0.00
2019-02-28T02:09:58.656Z,0.00
2019-02-28T02:10:58.644Z,0.00
2019-02-28T02:11:59.118Z,0.00
2019-02-28T02:12:58.626Z,0.00
2019-02-28T02:13:58.631Z,0.00
2019-02-28T02:14:58.599Z,0.00
2019-02-28T02:15:58.606Z,0.00
2019-02-28T02:17:01.217Z,0.00
2019-02-28T02:17:58.573Z,0.00
2019-02-28T02:18:58.561Z,0.00
2019-02-28T02:19:58.553Z,0.00
2019-02-28T02:21:00.140Z,0.00
2019-02-28T02:21:58.527Z,0.00
2019-02-28T02:22:58.515Z,0.00
2019-02-28T02:23:58.504Z,0.00
2019-02-28T02:24:59.434Z,0.00
2019-02-28T02:25:58.486Z,0.00
2019-02-28T02:26:58.504Z,0.00
2019-02-28T02:27:58.460Z,0.00
2019-02-28T02:29:00.915Z,0.00
2019-02-28T02:29:58.444Z,0.00
2019-02-28T02:30:58.440Z,0.00
2019-02-28T02:32:01.343Z,0.00
2019-02-28T02:32:58.436Z,0.00
2019-02-28T02:33:58.408Z,0.00
2019-02-28T02:35:06.285Z,0.00
2019-02-28T02:35:59.381Z,0.00
2019-02-28T02:36:58.369Z,0.00
2019-02-28T02:37:58.357Z,0.00
2019-02-28T02:38:58.351Z,0.00
2019-02-28T02:39:58.364Z,0.00
2019-02-28T02:41:00.561Z,0.00
2019-02-28T02:41:58.314Z,0.00
2019-02-28T02:42:58.301Z,0.00
2019-02-28T02:43:58.315Z,0.00
2019-02-28T02:44:58.288Z,0.00
2019-02-28T02:45:58.276Z,0.00
2019-02-28T02:46:58.264Z,0.00
2019-02-28T02:47:58.255Z,0.00
2019-02-28T02:48:58.265Z,0.00
2019-02-28T02:49:58.231Z,0.00
2019-02-28T02:50:58.214Z,0.00
2019-02-28T02:51:58.211Z,0.00
2019-02-28T02:53:05.074Z,0.00
2019-02-28T02:53:59.207Z,0.00
2019-02-28T02:54:58.205Z,0.00
2019-02-28T02:56:03.500Z,0.00
2019-02-28T02:56:59.153Z,0.00
2019-02-28T02:57:58.145Z,0.00
2019-02-28T02:59:01.152Z,0.00
2019-02-28T02:59:58.125Z,0.00
2019-02-28T03:00:58.129Z,0.00
2019-02-28T03:01:58.102Z,0.00
2019-02-28T03:02:58.102Z,0.00
2019-02-28T03:03:58.074Z,0.00
2019-02-28T03:04:59.355Z,0.00
2019-02-28T03:05:58.083Z,0.00
2019-02-28T03:06:58.049Z,0.00
2019-02-28T03:07:59.865Z,0.00
2019-02-28T03:08:58.026Z,0.00
2019-02-28T03:09:58.016Z,0.00
2019-02-28T03:10:57.999Z,0.00
2019-02-28T03:11:58.828Z,0.00
2019-02-28T03:12:57.980Z,0.00
2019-02-28T03:13:57.973Z,0.00
2019-02-28T03:14:57.980Z,0.00
2019-02-28T03:15:59.215Z,0.00
2019-02-28T03:16:57.953Z,0.00
2019-02-28T03:17:57.946Z,0.00
2019-02-28T03:18:58.411Z,0.00
2019-02-28T03:19:57.910Z,0.00
2019-02-28T03:20:57.899Z,0.00
2019-02-28T03:21:57.883Z,0.00
2019-02-28T03:23:02.148Z,0.00
2019-02-28T03:23:58.863Z,0.00
2019-02-28T03:24:57.875Z,0.00
2019-02-28T03:26:05.518Z,0.00
2019-02-28T03:26:58.835Z,0.00
2019-02-28T03:27:57.829Z,0.00
2019-02-28T03:28:57.809Z,0.00
2019-02-28T03:29:57.799Z,0.00
2019-02-28T03:30:57.804Z,0.00
2019-02-28T03:31:59.621Z,0.00
2019-02-28T03:32:57.824Z,0.00
2019-02-28T03:34:10.059Z,0.00
2019-02-28T03:34:59.440Z,0.00
2019-02-28T03:35:57.747Z,0.00
2019-02-28T03:36:57.916Z,0.00
2019-02-28T03:37:57.712Z,0.00
2019-02-28T03:38:57.704Z,0.00
2019-02-28T03:40:02.453Z,0.00
2019-02-28T03:40:58.702Z,0.00
2019-02-28T03:41:57.673Z,0.00
2019-02-28T03:43:05.303Z,0.00
2019-02-28T03:43:58.645Z,0.00
2019-02-28T03:44:58.301Z,0.00
2019-02-28T03:45:57.646Z,0.00
2019-02-28T03:46:57.618Z,0.00
2019-02-28T03:47:58.770Z,0.00
2019-02-28T03:48:57.607Z,0.00
2019-02-28T03:49:57.601Z,0.00
2019-02-28T03:50:57.575Z,0.00
2019-02-28T03:52:05.551Z,0.00
2019-02-28T03:52:58.549Z,0.00
2019-02-28T03:53:57.543Z,0.00
2019-02-28T03:55:03.280Z,0.00
2019-02-28T03:55:58.520Z,0.00
2019-02-28T03:56:57.527Z,0.00
2019-02-28T03:58:04.356Z,0.00
2019-02-28T03:58:58.488Z,0.00
2019-02-28T03:59:57.473Z,0.00
2019-02-28T04:00:57.466Z,0.00
2019-02-28T04:01:57.474Z,0.00
2019-02-28T04:02:59.110Z,0.00
2019-02-28T04:03:57.430Z,0.00
2019-02-28T04:04:57.451Z,0.00
2019-02-28T04:06:03.406Z,0.00
2019-02-28T04:06:58.421Z,0.00
2019-02-28T04:07:57.401Z,0.00
2019-02-28T04:08:57.383Z,0.00
2019-02-28T04:09:57.367Z,0.00
2019-02-28T04:10:57.355Z,0.00
2019-02-28T04:11:57.362Z,0.00
2019-02-28T04:12:57.336Z,0.00
2019-02-28T04:13:57.331Z,0.00
2019-02-28T04:14:57.319Z,0.00
2019-02-28T04:16:08.621Z,0.00
2019-02-28T04:16:58.348Z,0.00
2019-02-28T04:17:57.288Z,0.00
2019-02-28T04:18:57.268Z,0.00
2019-02-28T04:20:00.137Z,0.00
2019-02-28T04:20:57.285Z,0.00
2019-02-28T04:21:57.250Z,0.00
2019-02-28T04:23:00.070Z,0.00
2019-02-28T04:23:57.216Z,0.00
2019-02-28T04:24:57.208Z,0.00
2019-02-28T04:25:57.934Z,0.00
2019-02-28T04:26:57.207Z,0.00
2019-02-28T04:27:57.183Z,0.00
2019-02-28T04:28:57.167Z,0.00
2019-02-28T04:29:57.154Z,0.00
2019-02-28T04:30:57.140Z,0.00
2019-02-28T04:31:58.051Z,0.00
2019-02-28T04:33:01.146Z,0.00
2019-02-28T04:33:57.114Z,0.00
2019-02-28T04:34:57.106Z,0.00
2019-02-28T04:36:00.514Z,0.00
2019-02-28T04:36:57.099Z,0.00
2019-02-28T04:37:57.087Z,0.00
2019-02-28T04:38:57.062Z,0.00
2019-02-28T04:39:57.051Z,0.00
2019-02-28T04:40:58.841Z,0.00
2019-02-28T04:41:57.025Z,0.00
2019-02-28T04:42:57.032Z,0.00
2019-02-28T04:43:57.002Z,0.00
2019-02-28T04:44:56.993Z,0.00
2019-02-28T04:45:57.634Z,0.00
2019-02-28T04:46:56.977Z,0.00
2019-02-28T04:47:56.984Z,0.00
2019-02-28T04:48:56.954Z,0.00
2019-02-28T04:49:57.719Z,0.00
2019-02-28T04:50:56.939Z,0.00
2019-02-28T04:51:56.927Z,0.00
2019-02-28T04:52:56.928Z,0.00
2019-02-28T04:53:56.899Z,0.00
2019-02-28T04:54:59.427Z,0.00
2019-02-28T04:55:57.891Z,0.00
2019-02-28T04:56:56.866Z,0.00
2019-02-28T04:57:56.858Z,0.00
2019-02-28T04:58:59.711Z,0.00
2019-02-28T04:59:56.838Z,0.00
2019-02-28T05:00:56.826Z,0.00
2019-02-28T05:01:56.835Z,0.00
2019-02-28T05:02:56.802Z,0.00
2019-02-28T05:03:59.187Z,0.00
2019-02-28T05:04:57.783Z,0.00
2019-02-28T05:05:56.772Z,0.00
2019-02-28T05:06:56.764Z,0.00
2019-02-28T05:07:56.764Z,0.00
2019-02-28T05:08:56.763Z,0.00
2019-02-28T05:09:56.730Z,0.00
2019-02-28T05:10:56.823Z,0.00
2019-02-28T05:11:56.710Z,0.00
2019-02-28T05:12:56.698Z,0.00
2019-02-28T05:13:56.702Z,0.00
2019-02-28T05:14:58.516Z,0.00
2019-02-28T05:15:56.662Z,0.00
2019-02-28T05:16:56.653Z,0.00
2019-02-28T05:17:56.855Z,0.00
2019-02-28T05:18:58.194Z,0.00
2019-02-28T05:19:56.625Z,0.00
2019-02-28T05:20:56.614Z,0.00
2019-02-28T05:21:56.599Z,0.00
2019-02-28T05:22:59.261Z,0.00
2019-02-28T05:23:57.599Z,0.00
2019-02-28T05:24:56.570Z,0.00
2019-02-28T05:25:56.557Z,0.00
2019-02-28T05:26:57.350Z,0.00
2019-02-28T05:27:56.536Z,0.00
2019-02-28T05:28:56.527Z,0.00
2019-02-28T05:29:56.534Z,0.00
2019-02-28T05:30:56.511Z,0.00
2019-02-28T05:31:58.172Z,0.00
2019-02-28T05:32:56.485Z,0.00
2019-02-28T05:33:56.496Z,0.00
2019-02-28T05:34:56.482Z,0.00
2019-02-28T05:35:57.305Z,0.00
2019-02-28T05:36:56.440Z,0.00
2019-02-28T05:37:56.431Z,0.00
2019-02-28T05:38:57.261Z,0.00
2019-02-28T05:39:56.406Z,0.00
2019-02-28T05:40:56.422Z,0.00
2019-02-28T05:41:56.389Z,0.00
2019-02-28T05:42:58.410Z,0.00
2019-02-28T05:43:56.370Z,0.00
2019-02-28T05:44:56.383Z,4.00
2019-02-28T05:45:56.345Z,4.00
2019-02-28T05:46:58.176Z,0.00
2019-02-28T05:47:56.320Z,4.00
2019-02-28T05:48:56.311Z,4.00
2019-02-28T05:49:56.304Z,4.00
2019-02-28T05:50:56.314Z,4.00
2019-02-28T05:51:58.858Z,4.00
2019-02-28T05:52:56.270Z,4.00
2019-02-28T05:53:56.257Z,8.00
2019-02-28T05:54:57.813Z,12.00
2019-02-28T05:55:59.194Z,12.00
2019-02-28T05:56:56.226Z,12.00
2019-02-28T05:57:56.234Z,20.00
2019-02-28T05:58:56.204Z,20.00
2019-02-28T06:00:01.340Z,24.00
2019-02-28T06:00:57.213Z,32.00
2019-02-28T06:01:56.192Z,36.00
2019-02-28T06:02:58.063Z,44.00
2019-02-28T06:03:56.157Z,48.00
2019-02-28T06:04:56.139Z,60.00
2019-02-28T06:05:56.147Z,72.00
2019-02-28T06:06:56.118Z,80.00
2019-02-28T06:07:56.115Z,92.00
2019-02-28T06:08:56.101Z,104.00
2019-02-28T06:09:56.112Z,120.00
2019-02-28T06:11:00.499Z,136.00
2019-02-28T06:11:57.069Z,156.00
2019-02-28T06:12:56.329Z,176.00
2019-02-28T06:13:56.334Z,196.00
2019-02-28T06:15:02.016Z,220.00
2019-02-28T06:15:57.221Z,240.00
2019-02-28T06:16:56.014Z,268.00
2019-02-28T06:17:56.211Z,296.00
2019-02-28T06:18:55.998Z,324.00
2019-02-28T06:19:56.025Z,352.00
2019-02-28T06:20:56.029Z,384.00
2019-02-28T06:21:56.292Z,420.00
2019-02-28T06:22:55.970Z,448.00
2019-02-28T06:23:56.000Z,488.00
2019-02-28T06:24:55.954Z,524.00
2019-02-28T06:25:59.406Z,560.00
2019-02-28T06:26:57.000Z,596.00
2019-02-28T06:27:55.902Z,632.00
2019-02-28T06:28:55.889Z,676.00
2019-02-28T06:29:55.910Z,716.00
2019-02-28T06:30:55.929Z,756.00
2019-02-28T06:31:55.932Z,796.00
2019-02-28T06:32:59.206Z,840.00
2019-02-28T06:33:55.864Z,876.00
2019-02-28T06:34:55.885Z,916.00
2019-02-28T06:35:55.813Z,956.00
2019-02-28T06:36:55.824Z,992.00
2019-02-28T06:37:55.810Z,1032.00
2019-02-28T06:38:55.838Z,1072.00
2019-02-28T06:39:58.615Z,1112.00
2019-02-28T06:40:55.760Z,1148.00
2019-02-28T06:41:55.800Z,1184.00
2019-02-28T06:42:55.947Z,1212.00
2019-02-28T06:43:55.780Z,1244.00
2019-02-28T06:45:02.010Z,1272.00
2019-02-28T06:45:56.888Z,1276.00
2019-02-28T06:46:55.745Z,1280.00
2019-02-28T06:47:55.698Z,1304.00
2019-02-28T06:49:01.503Z,1352.00
2019-02-28T06:49:56.661Z,1408.00
2019-02-28T06:50:55.676Z,1496.00
2019-02-28T06:51:55.664Z,1592.00
2019-02-28T06:52:56.408Z,1700.00
2019-02-28T06:53:55.737Z,1824.00
2019-02-28T06:54:55.674Z,1884.00
2019-02-28T06:55:55.701Z,1968.00
2019-02-28T06:56:55.791Z,2012.00
2019-02-28T06:57:58.848Z,2080.00
2019-02-28T06:58:55.704Z,2144.00
2019-02-28T06:59:55.623Z,2196.00
2019-02-28T07:00:55.634Z,2248.00
2019-02-28T07:01:57.547Z,2304.00
2019-02-28T07:02:55.669Z,2356.00
2019-02-28T07:03:55.733Z,2412.00
2019-02-28T07:04:55.548Z,2460.00
2019-02-28T07:05:57.541Z,2504.00
2019-02-28T07:06:56.483Z,2544.00
2019-02-28T07:07:55.508Z,2592.00
2019-02-28T07:08:55.502Z,2648.00
2019-02-28T07:09:55.472Z,2716.00
2019-02-28T07:10:55.473Z,2788.00
2019-02-28T07:11:55.740Z,2860.00
2019-02-28T07:12:55.421Z,2912.00
2019-02-28T07:13:55.412Z,2964.00
2019-02-28T07:14:55.407Z,3008.00
2019-02-28T07:15:58.709Z,3056.00
2019-02-28T07:16:55.447Z,3112.00
2019-02-28T07:17:55.382Z,3192.00
2019-02-28T07:18:55.369Z,3252.00
2019-02-28T07:19:55.350Z,3304.00
2019-02-28T07:20:55.375Z,3352.00
2019-02-28T07:21:55.365Z,3408.00
2019-02-28T07:22:55.868Z,3464.00
2019-02-28T07:23:55.300Z,3508.00
2019-02-28T07:24:55.314Z,3548.00
2019-02-28T07:25:55.354Z,3584.00
2019-02-28T07:26:55.323Z,3632.00
2019-02-28T07:27:55.254Z,3676.00
2019-02-28T07:28:55.325Z,3724.00
2019-02-28T07:29:55.247Z,3768.00
2019-02-28T07:30:55.244Z,3812.00
2019-02-28T07:31:59.787Z,3864.00
2019-02-28T07:32:56.234Z,3892.00
2019-02-28T07:33:55.257Z,3944.00
2019-02-28T07:34:58.209Z,3976.00
2019-02-28T07:35:55.189Z,4016.00
2019-02-28T07:36:55.243Z,4048.00
2019-02-28T07:37:55.246Z,4056.00
2019-02-28T07:38:55.401Z,4096.00
2019-02-28T07:39:55.529Z,4136.00
2019-02-28T07:40:55.251Z,4172.00
2019-02-28T07:41:55.193Z,4208.00
2019-02-28T07:42:55.328Z,4256.00
2019-02-28T07:43:55.327Z,4292.00
2019-02-28T07:44:58.083Z,4348.00
2019-02-28T07:45:55.438Z,4404.00
2019-02-28T07:46:55.300Z,4444.00
2019-02-28T07:47:55.363Z,4480.00
2019-02-28T07:48:55.291Z,4496.00
2019-02-28T07:49:55.101Z,4548.00
2019-02-28T07:50:55.010Z,4608.00
2019-02-28T07:51:56.894Z,4656.00
2019-02-28T07:52:55.020Z,4700.00
2019-02-28T07:53:54.981Z,4748.00
2019-02-28T07:54:55.860Z,4804.00
2019-02-28T07:55:54.964Z,4864.00
2019-02-28T07:56:54.960Z,4892.00
2019-02-28T07:57:56.556Z,4976.00
2019-02-28T07:58:54.958Z,5020.00
2019-02-28T07:59:54.910Z,5056.00
2019-02-28T08:00:54.904Z,5136.00
2019-02-28T08:01:54.893Z,5184.00
2019-02-28T08:02:54.923Z,5268.00
2019-02-28T08:03:54.883Z,5352.00
2019-02-28T08:04:55.681Z,5428.00
2019-02-28T08:05:54.846Z,5536.00
2019-02-28T08:06:54.988Z,5592.00
2019-02-28T08:07:54.865Z,5644.00
2019-02-28T08:08:54.874Z,5696.00
2019-02-28T08:09:54.816Z,5760.00
2019-02-28T08:10:54.791Z,5780.00
2019-02-28T08:11:55.729Z,5784.00
2019-02-28T08:12:54.807Z,5736.00
2019-02-28T08:13:55.578Z,5808.00
2019-02-28T08:14:54.756Z,5908.00
2019-02-28T08:15:56.399Z,5940.00
2019-02-28T08:16:54.765Z,6020.00
2019-02-28T08:17:54.807Z,6028.00
2019-02-28T08:18:54.731Z,5960.00
2019-02-28T08:19:54.700Z,5852.00
2019-02-28T08:20:54.838Z,5860.00
2019-02-28T08:21:54.726Z,6112.00
2019-02-28T08:22:56.809Z,6348.00
2019-02-28T08:23:54.896Z,6440.00
2019-02-28T08:24:54.747Z,6464.00
2019-02-28T08:25:54.905Z,6492.00
2019-02-28T08:26:55.076Z,6544.00
2019-02-28T08:27:59.095Z,6572.00
2019-02-28T08:28:55.710Z,6620.00
2019-02-28T08:29:54.719Z,6720.00
2019-02-28T08:30:55.206Z,6784.00
2019-02-28T08:31:54.633Z,6828.00
2019-02-28T08:32:54.611Z,6788.00
2019-02-28T08:33:54.573Z,6784.00
2019-02-28T08:34:58.520Z,6756.00
2019-02-28T08:35:54.524Z,6688.00
2019-02-28T08:36:54.510Z,6604.00
2019-02-28T08:37:57.029Z,6368.00
2019-02-28T08:38:55.058Z,5960.00
2019-02-28T08:39:54.532Z,6288.00
2019-02-28T08:40:54.527Z,6296.00
2019-02-28T08:42:02.978Z,6208.00
2019-02-28T08:42:55.455Z,6244.00
2019-02-28T08:43:54.539Z,6232.00
2019-02-28T08:44:58.077Z,6232.00
2019-02-28T08:45:54.454Z,6352.00
2019-02-28T08:46:54.408Z,6296.00
2019-02-28T08:47:56.787Z,6280.00
2019-02-28T08:48:54.614Z,6384.00
2019-02-28T08:49:54.403Z,6432.00
2019-02-28T08:50:55.752Z,6232.00
2019-02-28T08:51:54.507Z,6488.00
2019-02-28T08:52:54.353Z,6108.00
2019-02-28T08:53:54.357Z,5984.00
2019-02-28T08:54:54.360Z,6104.00
2019-02-28T08:55:54.326Z,6180.00
2019-02-28T08:56:54.293Z,6376.00
2019-02-28T08:57:57.806Z,6312.00
2019-02-28T08:58:55.275Z,6328.00
2019-02-28T08:59:56.370Z,6840.00
2019-02-28T09:00:54.288Z,6904.00
2019-02-28T09:01:54.311Z,6876.00
2019-02-28T09:02:54.484Z,6904.00
2019-02-28T09:03:54.320Z,6920.00
2019-02-28T09:04:54.308Z,6920.00
2019-02-28T09:05:54.872Z,6956.00
2019-02-28T09:06:54.279Z,6980.00
2019-02-28T09:07:54.187Z,6996.00
2019-02-28T09:08:56.593Z,7068.00
2019-02-28T09:09:54.263Z,7132.00
2019-02-28T09:10:54.202Z,7160.00
2019-02-28T09:11:58.131Z,7200.00
2019-02-28T09:12:54.150Z,7192.00
2019-02-28T09:13:54.129Z,7264.00
2019-02-28T09:14:55.411Z,7348.00
2019-02-28T09:15:54.091Z,7364.00
2019-02-28T09:16:54.077Z,7252.00
2019-02-28T09:17:58.253Z,7452.00
2019-02-28T09:18:57.487Z,7568.00
2019-02-28T09:19:55.062Z,7456.00
2019-02-28T09:20:54.036Z,7500.00
2019-02-28T09:21:54.046Z,7468.00
2019-02-28T09:22:54.017Z,7288.00
2019-02-28T09:23:54.028Z,7416.00
2019-02-28T09:24:54.050Z,7608.00
2019-02-28T09:25:56.722Z,7708.00
2019-02-28T09:26:53.971Z,7772.00
2019-02-28T09:27:53.967Z,7828.00
2019-02-28T09:28:53.948Z,7760.00
2019-02-28T09:29:54.894Z,7504.00
2019-02-28T09:30:53.934Z,7796.00
2019-02-28T09:31:53.949Z,7840.00
2019-02-28T09:32:53.911Z,7964.00
2019-02-28T09:33:55.490Z,8084.00
2019-02-28T09:34:53.903Z,8108.00
2019-02-28T09:35:53.878Z,8132.00
2019-02-28T09:36:56.630Z,8152.00
2019-02-28T09:37:53.852Z,8136.00
2019-02-28T09:38:57.103Z,8228.00
2019-02-28T09:39:54.274Z,8376.00
2019-02-28T09:40:53.820Z,8472.00
2019-02-28T09:41:53.814Z,8536.00
2019-02-28T09:42:53.801Z,8656.00
2019-02-28T09:43:56.851Z,8780.00
2019-02-28T09:44:54.806Z,8896.00
2019-02-28T09:45:53.764Z,9076.00
2019-02-28T09:46:53.757Z,9272.00
2019-02-28T09:47:53.742Z,9528.00
2019-02-28T09:48:53.738Z,8456.00
2019-02-28T09:49:53.725Z,9744.00
2019-02-28T09:50:57.918Z,8832.00
2019-02-28T09:51:55.566Z,8176.00
2019-02-28T09:52:54.120Z,8688.00
2019-02-28T09:53:53.683Z,8696.00
2019-02-28T09:54:56.342Z,8020.00
2019-02-28T09:55:54.728Z,7424.00
2019-02-28T09:56:53.713Z,6764.00
2019-02-28T09:57:54.917Z,6768.00
2019-02-28T09:58:53.716Z,6492.00
2019-02-28T09:59:53.629Z,6952.00
2019-02-28T10:00:53.694Z,7004.00
2019-02-28T10:02:01.129Z,6356.00
2019-02-28T10:02:54.583Z,7404.00
2019-02-28T10:03:55.496Z,8588.00
2019-02-28T10:04:53.690Z,8064.00
2019-02-28T10:05:53.688Z,8416.00
2019-02-28T10:06:53.584Z,7532.00
2019-02-28T10:07:53.710Z,7520.00
2019-02-28T10:08:53.707Z,8536.00
2019-02-28T10:09:53.509Z,8688.00
2019-02-28T10:10:55.935Z,8568.00
2019-02-28T10:11:53.504Z,8536.00
2019-02-28T10:12:53.506Z,8780.00
2019-02-28T10:13:54.185Z,8668.00
2019-02-28T10:14:53.456Z,8444.00
2019-02-28T10:15:53.476Z,8612.00
2019-02-28T10:16:53.443Z,8724.00
2019-02-28T10:17:53.435Z,8604.00
2019-02-28T10:18:53.410Z,9252.00
2019-02-28T10:19:53.402Z,9064.00
2019-02-28T10:20:53.445Z,9172.00
2019-02-28T10:21:53.396Z,9340.00
2019-02-28T10:22:53.396Z,9280.00
2019-02-28T10:23:56.859Z,9420.00
2019-02-28T10:24:53.346Z,10216.00
2019-02-28T10:25:53.339Z,10720.00
2019-02-28T10:26:53.322Z,10880.00
2019-02-28T10:27:54.671Z,11252.00
2019-02-28T10:28:53.346Z,11164.00
2019-02-28T10:29:53.287Z,11004.00
2019-02-28T10:30:53.276Z,10968.00
2019-02-28T10:31:53.269Z,11028.00
2019-02-28T10:32:53.259Z,11180.00
2019-02-28T10:33:53.264Z,11724.00
2019-02-28T10:34:53.267Z,12088.00
2019-02-28T10:35:53.226Z,12140.00
2019-02-28T10:36:53.211Z,11848.00
2019-02-28T10:37:57.177Z,11588.00
2019-02-28T10:38:54.215Z,11560.00
2019-02-28T10:39:53.210Z,11848.00
2019-02-28T10:40:53.362Z,12600.00
2019-02-28T10:41:53.180Z,12856.00
2019-02-28T10:42:53.178Z,12628.00
2019-02-28T10:43:55.850Z,13268.00
2019-02-28T10:44:53.148Z,13684.00
2019-02-28T10:45:53.185Z,14292.00
2019-02-28T10:46:53.832Z,14992.00
2019-02-28T10:47:53.096Z,15300.00
2019-02-28T10:48:53.079Z,16160.00
2019-02-28T10:49:55.367Z,16360.00
2019-02-28T10:50:54.087Z,16104.00
2019-02-28T10:51:53.121Z,15472.00
2019-02-28T10:52:53.118Z,15012.00
2019-02-28T10:53:53.085Z,15444.00
2019-02-28T10:54:53.197Z,22496.00
2019-02-28T10:55:54.462Z,34784.00
2019-02-28T10:56:53.171Z,43232.00
2019-02-28T10:57:53.168Z,48832.00
2019-02-28T10:58:53.846Z,44320.00
2019-02-28T10:59:55.178Z,49440.00
2019-02-28T11:00:54.084Z,53184.00
2019-02-28T11:01:52.965Z,49568.00
2019-02-28T11:02:53.752Z,48800.00
2019-02-28T11:03:52.955Z,48480.00
2019-02-28T11:04:52.920Z,36960.00
2019-02-28T11:05:54.352Z,35456.00
2019-02-28T11:06:52.931Z,33856.00
2019-02-28T11:07:52.881Z,38688.00
2019-02-28T11:08:52.863Z,38752.00
2019-02-28T11:09:55.605Z,39904.00
2019-02-28T11:10:53.845Z,34400.00
2019-02-28T11:11:52.856Z,32064.00
2019-02-28T11:12:54.344Z,29952.00
2019-02-28T11:13:52.812Z,28096.00
2019-02-28T11:14:52.800Z,28064.00
2019-02-28T11:15:52.814Z,30976.00
2019-02-28T11:16:58.844Z,30336.00
2019-02-28T11:17:53.785Z,28256.00
2019-02-28T11:18:52.758Z,25408.00
2019-02-28T11:19:52.951Z,24320.00
2019-02-28T11:20:52.732Z,18912.00
2019-02-28T11:21:52.782Z,18944.00
2019-02-28T11:22:52.713Z,17632.00
2019-02-28T11:23:52.727Z,16320.00
2019-02-28T11:24:52.697Z,14868.00
2019-02-28T11:25:53.078Z,14820.00
2019-02-28T11:26:52.671Z,15852.00
2019-02-28T11:27:53.735Z,16480.00
2019-02-28T11:28:52.679Z,16640.00
2019-02-28T11:29:52.644Z,15752.00
2019-02-28T11:30:52.627Z,16084.00
2019-02-28T11:31:54.239Z,16216.00
2019-02-28T11:32:52.610Z,16308.00
2019-02-28T11:33:52.609Z,16640.00
2019-02-28T11:34:52.612Z,16800.00
2019-02-28T11:35:57.838Z,17120.00
2019-02-28T11:36:53.603Z,17120.00
2019-02-28T11:37:52.597Z,16960.00
2019-02-28T11:38:55.428Z,17088.00
2019-02-28T11:39:52.679Z,16896.00
2019-02-28T11:40:57.247Z,16832.00
2019-02-28T11:41:53.774Z,16928.00
2019-02-28T11:42:52.610Z,17088.00
2019-02-28T11:43:52.496Z,17504.00
2019-02-28T11:44:52.469Z,17568.00
2019-02-28T11:45:52.459Z,17536.00
2019-02-28T11:46:52.459Z,17600.00
2019-02-28T11:47:52.438Z,17792.00
2019-02-28T11:48:54.148Z,18016.00
2019-02-28T11:49:53.832Z,17888.00
2019-02-28T11:50:52.410Z,17856.00
2019-02-28T11:51:53.043Z,17888.00
2019-02-28T11:52:52.418Z,17824.00
2019-02-28T11:53:52.398Z,17824.00
2019-02-28T11:54:52.366Z,17792.00
2019-02-28T11:55:53.268Z,17888.00
2019-02-28T11:56:52.364Z,17952.00
2019-02-28T11:57:52.370Z,17984.00
2019-02-28T11:58:52.646Z,17984.00
2019-02-28T11:59:54.316Z,17952.00
2019-02-28T12:00:52.308Z,17984.00
2019-02-28T12:01:52.303Z,18048.00
2019-02-28T12:02:53.532Z,18080.00
2019-02-28T12:03:52.277Z,18208.00
2019-02-28T12:04:52.272Z,18272.00
2019-02-28T12:05:52.273Z,18336.00
2019-02-28T12:06:52.235Z,18272.00
2019-02-28T12:07:52.221Z,18304.00
2019-02-28T12:08:52.234Z,18336.00
2019-02-28T12:09:54.725Z,18304.00
2019-02-28T12:10:52.197Z,18240.00
2019-02-28T12:11:52.222Z,18144.00
2019-02-28T12:12:52.213Z,18208.00
2019-02-28T12:13:55.216Z,18112.00
2019-02-28T12:14:52.183Z,18080.00
2019-02-28T12:15:52.154Z,18080.00
2019-02-28T12:16:53.659Z,17952.00
2019-02-28T12:17:52.128Z,17824.00
2019-02-28T12:18:52.124Z,17600.00
2019-02-28T12:19:52.100Z,17472.00
2019-02-28T12:20:52.122Z,17216.00
2019-02-28T12:21:52.076Z,16960.00
2019-02-28T12:22:52.074Z,16800.00
2019-02-28T12:23:54.314Z,16540.00
2019-02-28T12:24:53.087Z,16372.00
2019-02-28T12:25:52.038Z,16236.00
2019-02-28T12:26:52.606Z,16012.00
2019-02-28T12:27:52.097Z,15836.00
2019-02-28T12:28:52.099Z,15628.00
2019-02-28T12:29:52.061Z,15416.00
2019-02-28T12:30:52.070Z,15260.00
2019-02-28T12:31:52.068Z,15212.00
2019-02-28T12:32:52.625Z,15280.00
2019-02-28T12:33:53.358Z,15240.00
2019-02-28T12:34:51.949Z,15060.00